KFME/FME METAR and TAF weather

Enter ICAO airport designator
Station Type Date Time Source
KFME METAR 2020/06/05 07:35 UTC NOAA

KFME 050735Z AUTO 14004KT 4SM CLR 19/19 A2992 RMK AO1


Station Type Date Time Source
KFME Decoded METAR 2020/06/05 07:35 UTC NOAA

Fort Meade / Tipton, MD, United States (KFME) 39-05N 076-46W
Jun 05, 2020 - 03:35 AM EDT / 2020.06.05 0735 UTC
Wind: from the SE (140 degrees) at 5 MPH (4 KT):0
Visibility: 4 mile(s):0
Sky conditions: clear
Temperature: 66 F (19 C)
Dew Point: 66 F (19 C)
Relative Humidity: 100%
Pressure (altimeter): 29.92 in. Hg (1013 hPa)
ob: KFME 050735Z AUTO 14004KT 4SM CLR 19/19 A2992 RMK AO1
cycle: 7

Station Type Date Time Source
KFME TAF UTC NOAA

Error!

Example: see airport list